createdAt,value
2019-04-20T00:01:03.394Z,7.00
2019-04-20T00:03:41.281Z,6.87
2019-04-20T00:06:09.205Z,7.43
2019-04-20T00:08:42.652Z,6.87
2019-04-20T00:11:24.842Z,6.90
2019-04-20T00:13:54.874Z,7.03
2019-04-20T00:16:19.464Z,7.27
2019-04-20T00:18:55.637Z,7.30
2019-04-20T00:21:50.653Z,7.33
2019-04-20T00:24:33.619Z,6.73
2019-04-20T00:27:26.019Z,6.37
2019-04-20T00:29:56.171Z,7.20
2019-04-20T00:32:18.560Z,7.17
2019-04-20T00:34:45.077Z,7.03
2019-04-20T00:37:15.171Z,6.87
2019-04-20T00:39:46.827Z,7.80
2019-04-20T00:42:19.637Z,7.70
2019-04-20T00:44:58.804Z,7.97
2019-04-20T00:47:34.353Z,7.60
2019-04-20T00:50:08.110Z,8.50
2019-04-20T00:52:44.810Z,8.93
2019-04-20T00:55:02.417Z,9.43
2019-04-20T00:57:41.792Z,8.60
2019-04-20T01:00:25.903Z,8.23
2019-04-20T01:02:50.642Z,7.93
2019-04-20T01:05:43.824Z,7.97
2019-04-20T01:08:19.087Z,7.83
2019-04-20T01:10:54.105Z,7.23
2019-04-20T01:13:24.984Z,7.70
2019-04-20T01:16:05.007Z,7.83
2019-04-20T01:18:29.363Z,7.63
2019-04-20T01:21:06.833Z,8.00
2019-04-20T01:23:40.196Z,8.00
2019-04-20T01:26:11.455Z,8.07
2019-04-20T01:31:22.181Z,8.20
2019-04-20T01:33:55.101Z,8.83
2019-04-20T01:36:36.934Z,8.00
2019-04-20T01:39:06.947Z,7.87
2019-04-20T01:41:28.662Z,8.00
2019-04-20T01:44:00.529Z,8.07
2019-04-20T01:46:33.019Z,7.77
2019-04-20T01:49:09.181Z,8.00
2019-04-20T01:51:47.224Z,8.83
2019-04-20T01:54:26.780Z,8.93
2019-04-20T01:57:03.095Z,8.53
2019-04-20T01:59:52.042Z,9.00
2019-04-20T02:02:25.805Z,8.27
2019-04-20T02:05:10.296Z,9.20
2019-04-20T02:07:43.448Z,9.47
2019-04-20T02:10:12.197Z,8.33
2019-04-20T02:12:44.008Z,7.83
2019-04-20T02:15:24.506Z,9.17
2019-04-20T02:18:03.196Z,9.10
2019-04-20T02:20:37.855Z,8.27
2019-04-20T02:23:07.317Z,10.10
2019-04-20T02:25:27.070Z,10.33
2019-04-20T02:28:17.587Z,10.03
2019-04-20T02:31:06.527Z,9.33
2019-04-20T02:33:43.058Z,9.30
2019-04-20T02:41:51.755Z,9.57
2019-04-20T02:44:31.941Z,10.13
2019-04-20T02:46:57.524Z,9.37
2019-04-20T02:52:06.140Z,8.40
2019-04-20T02:54:36.754Z,9.63
2019-04-20T02:57:10.777Z,8.77
2019-04-20T03:02:01.485Z,10.10
2019-04-20T03:04:25.791Z,9.23
2019-04-20T03:07:05.456Z,9.33
2019-04-20T03:09:40.249Z,9.50
2019-04-20T03:12:16.804Z,10.63
2019-04-20T03:14:44.992Z,10.40
2019-04-20T03:17:27.121Z,10.73
2019-04-20T03:19:48.709Z,10.13
2019-04-20T03:22:47.650Z,10.20
2019-04-20T03:25:06.177Z,10.63
2019-04-20T03:27:46.794Z,10.43
2019-04-20T03:31:24.632Z,11.37
2019-04-20T03:33:41.366Z,10.47
2019-04-20T03:36:10.395Z,11.27
2019-04-20T03:38:26.264Z,10.40
2019-04-20T03:40:57.391Z,10.60
2019-04-20T03:43:13.957Z,10.73
2019-04-20T03:45:54.244Z,11.13
2019-04-20T03:48:35.889Z,10.77
2019-04-20T03:51:22.050Z,11.07
2019-04-20T03:54:02.755Z,11.30
2019-04-20T03:56:46.267Z,10.87
2019-04-20T03:59:39.498Z,11.40
2019-04-20T04:02:29.831Z,11.10
2019-04-20T04:05:16.503Z,11.13
2019-04-20T04:07:37.852Z,11.17
2019-04-20T04:10:16.907Z,12.37
2019-04-20T04:13:09.907Z,11.13
2019-04-20T04:15:48.628Z,12.03
2019-04-20T04:18:25.535Z,11.17
2019-04-20T04:20:55.490Z,11.77
2019-04-20T04:23:40.342Z,11.53
2019-04-20T04:26:12.910Z,11.43
2019-04-20T04:28:46.321Z,10.67
2019-04-20T04:31:20.470Z,11.80
2019-04-20T04:36:20.805Z,11.13
2019-04-20T04:39:05.467Z,11.63
2019-04-20T04:41:36.726Z,11.27
2019-04-20T04:44:04.503Z,10.30
2019-04-20T04:46:24.919Z,10.87
2019-04-20T04:49:06.868Z,11.37
2019-04-20T04:51:41.699Z,10.87
2019-04-20T04:54:13.834Z,10.67
2019-04-20T04:56:35.595Z,10.63
2019-04-20T04:59:08.541Z,10.73
2019-04-20T05:01:40.505Z,11.07
2019-04-20T05:04:33.438Z,12.00
2019-04-20T05:06:58.119Z,10.33
2019-04-20T05:09:20.871Z,11.13
2019-04-20T05:11:59.982Z,11.00
2019-04-20T05:14:39.785Z,10.70
2019-04-20T05:17:11.438Z,11.77
2019-04-20T05:19:53.038Z,11.27
2019-04-20T05:22:32.148Z,10.53
2019-04-20T05:25:09.138Z,10.27
2019-04-20T05:27:50.878Z,11.80
2019-04-20T05:30:05.681Z,11.20
2019-04-20T05:32:47.837Z,10.53
2019-04-20T05:35:30.921Z,11.20
2019-04-20T05:38:12.151Z,10.73
2019-04-20T05:40:38.422Z,11.50
2019-04-20T05:43:20.637Z,12.40
2019-04-20T05:45:49.992Z,10.27
2019-04-20T05:48:20.571Z,11.37
2019-04-20T05:50:56.058Z,11.07
2019-04-20T05:53:42.057Z,10.77
2019-04-20T05:56:02.576Z,11.67
2019-04-20T05:58:38.794Z,12.57
2019-04-20T06:01:21.564Z,11.70
2019-04-20T06:03:42.547Z,10.40
2019-04-20T06:06:22.166Z,11.40
2019-04-20T06:09:00.033Z,10.60
2019-04-20T06:11:26.701Z,12.13
2019-04-20T06:14:12.582Z,11.80
2019-04-20T06:17:01.916Z,11.60
2019-04-20T06:19:48.896Z,12.37
2019-04-20T06:22:32.007Z,11.27
2019-04-20T06:25:15.038Z,11.30
2019-04-20T06:27:41.103Z,11.40
2019-04-20T06:30:10.424Z,10.83
2019-04-20T06:33:34.638Z,10.47
2019-04-20T06:36:09.344Z,11.13
2019-04-20T06:38:42.230Z,10.80
2019-04-20T06:41:10.577Z,10.20
2019-04-20T06:43:40.993Z,10.97
2019-04-20T06:46:10.362Z,11.30
2019-04-20T06:48:52.305Z,10.90
2019-04-20T06:51:32.372Z,10.87
2019-04-20T06:54:03.137Z,11.53
2019-04-20T06:56:51.927Z,10.67
2019-04-20T06:59:29.054Z,10.43
2019-04-20T07:01:56.890Z,10.57
2019-04-20T07:04:38.756Z,11.00
2019-04-20T07:07:03.751Z,11.10
2019-04-20T07:09:42.305Z,10.80
2019-04-20T07:12:02.961Z,11.07
2019-04-20T07:14:31.880Z,10.67
2019-04-20T07:17:26.997Z,10.50
2019-04-20T07:20:04.198Z,10.43
2019-04-20T07:23:08.216Z,9.90
2019-04-20T07:25:19.081Z,10.67
2019-04-20T07:27:54.047Z,10.10
2019-04-20T07:30:21.875Z,11.03
2019-04-20T07:33:00.096Z,10.53
2019-04-20T07:35:30.778Z,10.03
2019-04-20T07:38:25.657Z,10.17
2019-04-20T07:40:38.315Z,10.13
2019-04-20T07:43:08.151Z,10.13
2019-04-20T07:45:36.444Z,9.90
2019-04-20T07:48:20.664Z,10.50
2019-04-20T07:50:46.240Z,9.40
2019-04-20T07:53:22.914Z,11.53
2019-04-20T07:55:58.009Z,10.00
2019-04-20T07:58:25.290Z,10.20
2019-04-20T08:01:23.555Z,9.47
2019-04-20T08:03:58.754Z,9.67
2019-04-20T08:06:27.322Z,9.67
2019-04-20T08:09:08.314Z,9.40
2019-04-20T08:11:52.812Z,9.37
2019-04-20T08:17:09.455Z,9.57
2019-04-20T08:19:23.439Z,9.30
2019-04-20T08:22:02.505Z,9.90
2019-04-20T08:24:27.659Z,9.23
2019-04-20T08:26:55.231Z,9.43
2019-04-20T08:29:47.481Z,8.47
2019-04-20T08:32:30.714Z,8.77
2019-04-20T08:35:05.119Z,8.60
2019-04-20T08:37:41.341Z,8.77
2019-04-20T08:40:13.257Z,8.33
2019-04-20T08:42:56.972Z,8.20
2019-04-20T08:45:23.940Z,8.50
2019-04-20T08:47:56.347Z,8.23
2019-04-20T08:50:27.037Z,8.17
2019-04-20T08:53:15.970Z,7.73
2019-04-20T08:55:36.129Z,7.53
2019-04-20T08:57:51.459Z,7.60
2019-04-20T09:00:29.715Z,6.70
2019-04-20T09:03:07.871Z,7.00
2019-04-20T09:05:43.730Z,7.27
2019-04-20T09:08:24.099Z,7.00
2019-04-20T09:11:19.676Z,7.00
2019-04-20T09:13:43.083Z,7.30
2019-04-20T09:16:10.847Z,7.57
2019-04-20T09:18:52.466Z,6.87
2019-04-20T09:21:34.548Z,8.17
2019-04-20T09:24:14.603Z,7.83
2019-04-20T09:26:45.646Z,7.83
2019-04-20T09:29:12.583Z,7.90
2019-04-20T09:32:16.878Z,7.97
2019-04-20T09:34:54.574Z,7.90
2019-04-20T09:37:47.330Z,8.87
2019-04-20T09:40:31.200Z,7.60
2019-04-20T09:42:47.948Z,8.40
2019-04-20T09:45:37.510Z,8.40
2019-04-20T09:48:12.548Z,8.00
2019-04-20T09:50:56.520Z,7.23
2019-04-20T09:53:24.763Z,8.13
2019-04-20T09:56:01.582Z,8.13
2019-04-20T09:58:27.102Z,8.13
2019-04-20T10:01:01.777Z,7.33
2019-04-20T10:03:24.751Z,7.63
2019-04-20T10:05:56.320Z,8.30
2019-04-20T10:08:29.261Z,7.63
2019-04-20T10:11:01.680Z,8.13
2019-04-20T10:13:34.367Z,8.80
2019-04-20T10:16:05.914Z,8.90
2019-04-20T10:18:42.478Z,8.90
2019-04-20T10:21:11.693Z,8.60
2019-04-20T10:23:43.024Z,8.20
2019-04-20T10:26:16.449Z,9.13
2019-04-20T10:28:48.174Z,9.13
2019-04-20T10:31:20.386Z,8.80
2019-04-20T10:33:51.584Z,8.60
2019-04-20T10:36:37.486Z,9.37
2019-04-20T10:39:10.708Z,7.70
2019-04-20T10:41:49.121Z,8.17
2019-04-20T10:44:16.656Z,8.67
2019-04-20T10:46:49.160Z,8.53
2019-04-20T10:49:20.789Z,9.07
2019-04-20T10:51:51.889Z,8.77
2019-04-20T10:54:22.975Z,8.23
2019-04-20T10:56:55.419Z,8.23
2019-04-20T10:59:27.715Z,7.80
2019-04-20T11:01:59.782Z,7.20
2019-04-20T11:04:32.740Z,8.17
2019-04-20T11:07:04.819Z,8.23
2019-04-20T11:09:36.626Z,7.80
2019-04-20T11:12:14.607Z,7.47
2019-04-20T11:14:45.941Z,7.73
2019-04-20T11:17:18.205Z,8.70
2019-04-20T11:19:49.536Z,7.80
2019-04-20T11:22:22.246Z,7.83
2019-04-20T11:24:54.317Z,7.93
2019-04-20T11:27:27.962Z,8.40
2019-04-20T11:30:00.205Z,8.80
2019-04-20T11:32:31.866Z,8.17
2019-04-20T11:35:09.086Z,8.73
2019-04-20T11:37:37.324Z,7.50
2019-04-20T11:40:09.129Z,8.70
2019-04-20T11:42:45.667Z,7.73
2019-04-20T11:45:18.442Z,8.20
2019-04-20T11:48:01.146Z,8.70
2019-04-20T11:50:35.653Z,8.33
2019-04-20T11:53:09.055Z,8.20
2019-04-20T11:55:44.655Z,8.50
2019-04-20T11:58:18.215Z,8.30
2019-04-20T12:00:59.407Z,8.57
2019-04-20T12:03:38.040Z,7.97
2019-04-20T12:06:07.066Z,9.45
2019-04-20T12:08:40.569Z,8.17
2019-04-20T12:11:26.515Z,8.53
2019-04-20T12:13:48.862Z,9.10
2019-04-20T12:16:21.926Z,8.27
2019-04-20T12:18:54.544Z,9.20
2019-04-20T12:21:26.501Z,9.13
2019-04-20T12:23:58.335Z,8.40
2019-04-20T12:26:30.917Z,7.87
2019-04-20T12:29:03.548Z,8.13
2019-04-20T12:31:35.666Z,7.28
2019-04-20T12:34:08.583Z,8.00
2019-04-20T12:36:40.191Z,7.37
2019-04-20T12:39:13.235Z,7.25
2019-04-20T12:41:52.899Z,7.40
2019-04-20T12:44:19.700Z,7.45
2019-04-20T12:46:52.130Z,7.93
2019-04-20T12:49:23.613Z,7.85
2019-04-20T12:51:59.451Z,8.37
2019-04-20T12:54:29.022Z,7.72
2019-04-20T12:57:00.557Z,7.60
2019-04-20T12:59:32.205Z,7.90
2019-04-20T13:02:03.494Z,7.20
2019-04-20T13:04:37.282Z,7.00
2019-04-20T13:07:09.980Z,7.00
2019-04-20T13:09:48.676Z,6.60
2019-04-20T13:12:32.664Z,7.35
2019-04-20T13:15:34.180Z,7.87
2019-04-20T13:18:05.758Z,7.67
2019-04-20T13:20:37.761Z,7.30
2019-04-20T13:23:09.380Z,7.60
2019-04-20T13:25:41.276Z,7.53
2019-04-20T13:28:12.925Z,7.27
2019-04-20T13:30:44.163Z,7.60
2019-04-20T13:33:15.509Z,6.90
2019-04-20T13:35:48.070Z,7.15
2019-04-20T13:38:20.327Z,6.80
2019-04-20T13:40:51.862Z,7.33
2019-04-20T13:43:23.828Z,7.08
2019-04-20T13:45:55.321Z,7.40
2019-04-20T13:48:26.799Z,7.70
2019-04-20T13:51:00.080Z,7.90
2019-04-20T13:53:32.926Z,6.97
2019-04-20T13:56:17.493Z,7.30
2019-04-20T13:58:58.144Z,7.77
2019-04-20T14:02:02.538Z,7.53
2019-04-20T14:04:37.344Z,6.97
2019-04-20T14:07:12.177Z,6.70
2019-04-20T14:09:43.619Z,6.75
2019-04-20T14:12:23.228Z,7.20
2019-04-20T14:14:49.332Z,8.20
2019-04-20T14:17:21.246Z,7.07
2019-04-20T14:19:53.260Z,8.03
2019-04-20T14:22:25.568Z,6.97
2019-04-20T14:24:57.588Z,6.83
2019-04-20T14:27:28.914Z,6.93
2019-04-20T14:30:03.354Z,6.80
2019-04-20T14:32:40.842Z,7.03
2019-04-20T14:35:12.472Z,7.05
2019-04-20T14:37:43.907Z,7.73
2019-04-20T14:40:16.529Z,7.80
2019-04-20T14:42:51.637Z,7.20
2019-04-20T14:45:22.782Z,6.47
2019-04-20T14:47:54.776Z,6.15
2019-04-20T14:50:27.599Z,6.97
2019-04-20T14:52:59.797Z,7.43
2019-04-20T14:55:31.411Z,7.40
2019-04-20T14:58:07.972Z,6.78
2019-04-20T15:00:51.005Z,7.37
2019-04-20T15:03:38.441Z,6.90
2019-04-20T15:06:09.775Z,6.63
2019-04-20T15:08:42.785Z,6.40
2019-04-20T15:11:14.737Z,6.47
2019-04-20T15:13:46.971Z,6.75
2019-04-20T15:16:18.388Z,6.20
2019-04-20T15:19:09.630Z,6.72
2019-04-20T15:21:43.040Z,6.00
2019-04-20T15:24:15.388Z,5.90
2019-04-20T15:26:46.828Z,6.27
2019-04-20T15:29:20.165Z,7.20
2019-04-20T15:31:52.255Z,6.57
2019-04-20T15:34:24.750Z,6.93
2019-04-20T15:36:58.194Z,6.80
2019-04-20T15:39:30.535Z,7.00
2019-04-20T15:42:03.233Z,6.77
2019-04-20T15:44:35.564Z,7.60
2019-04-20T15:47:07.421Z,6.85
2019-04-20T15:49:39.942Z,6.72
2019-04-20T15:52:12.460Z,7.15
2019-04-20T15:54:45.562Z,7.23
2019-04-20T15:57:22.964Z,6.53
2019-04-20T15:59:50.621Z,7.50
2019-04-20T16:02:29.340Z,7.03
2019-04-20T16:05:06.532Z,8.07
2019-04-20T16:07:44.517Z,7.83
2019-04-20T16:10:12.876Z,6.63
2019-04-20T16:12:44.931Z,7.17
2019-04-20T16:15:17.763Z,7.33
2019-04-20T16:17:53.017Z,6.27
2019-04-20T16:20:25.030Z,7.07
2019-04-20T16:22:56.392Z,6.97
2019-04-20T16:25:43.578Z,7.20
2019-04-20T16:28:15.072Z,6.63
2019-04-20T16:30:47.553Z,6.97
2019-04-20T16:33:18.848Z,6.53
2019-04-20T16:35:50.430Z,6.07
2019-04-20T16:38:22.445Z,6.23
2019-04-20T16:40:54.628Z,5.97
2019-04-20T16:43:31.977Z,6.27
2019-04-20T16:45:59.416Z,6.67
2019-04-20T16:48:30.768Z,5.63
2019-04-20T16:51:04.893Z,6.20
2019-04-20T16:53:39.447Z,5.80
2019-04-20T16:56:10.594Z,6.00
2019-04-20T16:58:47.672Z,6.23
2019-04-20T17:01:21.366Z,6.13
2019-04-20T17:04:02.151Z,6.27
2019-04-20T17:06:29.838Z,6.27
2019-04-20T17:09:01.428Z,5.87
2019-04-20T17:11:34.453Z,6.10
2019-04-20T17:14:08.514Z,5.70
2019-04-20T17:16:40.156Z,5.60
2019-04-20T17:19:11.709Z,5.87
2019-04-20T17:21:44.430Z,5.00
2019-04-20T17:24:17.552Z,5.50
2019-04-20T17:27:01.263Z,5.97
2019-04-20T17:29:36.157Z,5.47
2019-04-20T17:32:13.723Z,5.57
2019-04-20T17:35:00.483Z,5.83
2019-04-20T17:37:18.786Z,5.33
2019-04-20T17:40:12.940Z,5.30
2019-04-20T17:42:38.796Z,4.73
2019-04-20T17:45:04.083Z,4.97
2019-04-20T17:47:47.317Z,5.53
2019-04-20T17:50:19.928Z,5.17
2019-04-20T17:52:56.296Z,4.73
2019-04-20T17:55:22.906Z,4.67
2019-04-20T17:57:47.087Z,4.93
2019-04-20T18:00:39.544Z,4.53
2019-04-20T18:03:20.596Z,4.50
2019-04-20T18:05:59.766Z,4.10
2019-04-20T18:08:35.605Z,4.67
2019-04-20T18:10:58.840Z,4.10
2019-04-20T18:13:26.017Z,4.50
2019-04-20T18:16:24.489Z,4.77
2019-04-20T18:19:17.000Z,4.33
2019-04-20T18:21:59.785Z,5.03
2019-04-20T18:24:59.675Z,5.07
2019-04-20T18:27:27.933Z,4.80
2019-04-20T18:29:58.918Z,5.00
2019-04-20T18:32:20.653Z,5.57
2019-04-20T18:37:52.660Z,6.50
2019-04-20T18:40:31.675Z,6.13
2019-04-20T18:43:01.769Z,6.13
2019-04-20T18:45:39.693Z,6.60
2019-04-20T18:48:18.389Z,6.90
2019-04-20T18:50:39.826Z,6.90
2019-04-20T18:53:14.653Z,7.27
2019-04-20T18:55:46.805Z,6.50
2019-04-20T18:58:15.273Z,6.67
2019-04-20T19:00:51.566Z,6.20
2019-04-20T19:03:28.980Z,7.30
2019-04-20T19:05:53.766Z,6.33
2019-04-20T19:08:35.245Z,6.53
2019-04-20T19:11:04.077Z,6.93
2019-04-20T19:13:41.519Z,7.73
2019-04-20T19:16:50.810Z,7.23
2019-04-20T19:19:24.543Z,7.23
2019-04-20T19:21:49.990Z,7.63
2019-04-20T19:24:26.475Z,8.00
2019-04-20T19:27:00.151Z,7.60
2019-04-20T19:29:34.635Z,7.43
2019-04-20T19:32:21.125Z,8.17
2019-04-20T19:34:46.407Z,7.53
2019-04-20T19:37:15.603Z,7.93
2019-04-20T19:39:53.258Z,8.10
2019-04-20T19:42:31.103Z,7.93
2019-04-20T19:45:01.654Z,8.27
2019-04-20T19:47:38.381Z,8.83
2019-04-20T19:50:25.206Z,8.00
2019-04-20T19:52:50.219Z,8.70
2019-04-20T19:55:10.508Z,8.27
2019-04-20T19:57:50.987Z,8.90
2019-04-20T20:00:08.208Z,8.47
2019-04-20T20:02:41.428Z,8.70
2019-04-20T20:05:16.282Z,9.47
2019-04-20T20:07:49.818Z,9.13
2019-04-20T20:10:20.858Z,9.20
2019-04-20T20:12:58.585Z,10.13
2019-04-20T20:15:32.026Z,9.70
2019-04-20T20:18:16.833Z,9.27
2019-04-20T20:20:52.365Z,9.10
2019-04-20T20:23:05.582Z,9.57
2019-04-20T20:25:42.657Z,10.00
2019-04-20T20:28:19.069Z,9.13
2019-04-20T20:30:56.770Z,9.50
2019-04-20T20:33:36.466Z,9.70
2019-04-20T20:35:58.531Z,9.73
2019-04-20T20:38:31.503Z,10.53
2019-04-20T20:41:10.317Z,10.50
2019-04-20T20:43:44.831Z,10.80
2019-04-20T20:46:17.240Z,10.93
2019-04-20T20:49:03.489Z,11.87
2019-04-20T20:51:34.493Z,11.30
2019-04-20T20:53:59.039Z,10.70
2019-04-20T20:56:25.051Z,11.50
2019-04-20T20:59:02.984Z,11.23
2019-04-20T21:01:29.187Z,11.23
2019-04-20T21:03:58.564Z,10.83
2019-04-20T21:06:30.686Z,11.33
2019-04-20T21:09:03.702Z,11.60
2019-04-20T21:11:38.060Z,11.53
2019-04-20T21:14:15.588Z,10.60
2019-04-20T21:16:53.461Z,10.90
2019-04-20T21:19:28.625Z,12.67
2019-04-20T21:21:55.884Z,11.57
2019-04-20T21:24:27.266Z,11.87
2019-04-20T21:27:07.018Z,11.37
2019-04-20T21:29:40.270Z,11.37
2019-04-20T21:32:19.710Z,11.33
2019-04-20T21:34:55.691Z,11.47
2019-04-20T21:37:25.579Z,11.33
2019-04-20T21:39:59.812Z,11.93
2019-04-20T21:42:34.630Z,11.83
2019-04-20T21:45:08.183Z,11.57
2019-04-20T21:47:39.254Z,12.50
2019-04-20T21:50:26.705Z,13.03
2019-04-20T21:52:46.770Z,12.90
2019-04-20T21:55:16.254Z,12.90
2019-04-20T21:57:51.558Z,12.67
2019-04-20T22:00:42.448Z,13.00
2019-04-20T22:03:14.689Z,12.70
2019-04-20T22:05:46.487Z,14.03
2019-04-20T22:08:19.573Z,13.50
2019-04-20T22:11:08.909Z,13.87
2019-04-20T22:13:43.636Z,14.23
2019-04-20T22:16:15.191Z,13.93
2019-04-20T22:18:54.302Z,15.23
2019-04-20T22:21:26.531Z,14.47
2019-04-20T22:24:06.534Z,13.67
2019-04-20T22:26:32.828Z,13.87
2019-04-20T22:29:00.352Z,14.43
2019-04-20T22:31:34.036Z,14.43
2019-04-20T22:34:10.340Z,14.67
2019-04-20T22:36:44.818Z,15.93
2019-04-20T22:39:24.537Z,15.13
2019-04-20T22:42:00.137Z,15.17
2019-04-20T22:44:30.675Z,15.93
2019-04-20T22:47:05.406Z,15.53
2019-04-20T22:49:49.999Z,15.63
2019-04-20T22:52:26.637Z,15.57
2019-04-20T22:55:08.510Z,16.30
2019-04-20T22:57:31.999Z,16.70
2019-04-20T22:59:56.912Z,15.33
2019-04-20T23:02:23.599Z,15.73
2019-04-20T23:04:57.080Z,15.43
2019-04-20T23:07:30.668Z,15.40
2019-04-20T23:10:03.783Z,16.10
2019-04-20T23:12:35.758Z,15.60
2019-04-20T23:15:08.212Z,14.67
2019-04-20T23:17:43.375Z,15.13
2019-04-20T23:20:22.066Z,13.93
2019-04-20T23:22:50.832Z,16.10
2019-04-20T23:25:20.855Z,16.40
2019-04-20T23:28:00.541Z,14.97
2019-04-20T23:30:35.630Z,15.10
2019-04-20T23:33:05.486Z,14.90
2019-04-20T23:35:43.730Z,14.57
2019-04-20T23:38:16.407Z,14.67
2019-04-20T23:40:45.823Z,13.80
2019-04-20T23:43:26.930Z,13.53
2019-04-20T23:46:24.803Z,14.07
2019-04-20T23:49:17.020Z,14.17
2019-04-20T23:52:03.730Z,14.17
2019-04-20T23:54:25.093Z,14.37
2019-04-20T23:56:55.685Z,16.57
2019-04-20T23:59:34.355Z,15.77
